createdAt,value
2019-02-01T00:00:19.841Z,0
2019-02-01T00:01:00.405Z,0
2019-02-01T00:01:40.964Z,0
2019-02-01T00:02:21.512Z,0
2019-02-01T00:03:02.067Z,0
2019-02-01T00:03:42.618Z,0
2019-02-01T00:04:23.172Z,0
2019-02-01T00:05:03.724Z,0
2019-02-01T00:05:44.284Z,0
2019-02-01T00:06:24.834Z,0
2019-02-01T00:07:05.390Z,0
2019-02-01T00:07:45.949Z,0
2019-02-01T00:08:26.497Z,0
2019-02-01T00:09:07.061Z,0
2019-02-01T00:09:47.637Z,0
2019-02-01T00:10:28.196Z,0
2019-02-01T00:11:08.756Z,0
2019-02-01T00:11:49.309Z,0
2019-02-01T00:12:29.870Z,0
2019-02-01T00:13:10.423Z,0
2019-02-01T00:13:50.983Z,0
2019-02-01T00:14:31.552Z,0
2019-02-01T00:15:12.083Z,0
2019-02-01T00:15:52.631Z,0
2019-02-01T00:16:33.240Z,0
2019-02-01T00:17:13.738Z,0
2019-02-01T00:18:00.463Z,0
2019-02-01T00:18:34.857Z,0
2019-02-01T00:19:15.414Z,0
2019-02-01T00:19:55.958Z,0
2019-02-01T00:20:36.504Z,0
2019-02-01T00:21:17.077Z,0
2019-02-01T00:21:57.628Z,0
2019-02-01T00:22:38.185Z,0
2019-02-01T00:23:18.743Z,0
2019-02-01T00:23:59.308Z,0
2019-02-01T00:24:39.870Z,0
2019-02-01T00:25:20.423Z,0
2019-02-01T00:26:00.977Z,0
2019-02-01T00:26:41.541Z,0
2019-02-01T00:27:22.092Z,0
2019-02-01T00:28:02.650Z,0
2019-02-01T00:28:43.215Z,0
2019-02-01T00:29:23.769Z,0
2019-02-01T00:30:04.324Z,0
2019-02-01T00:30:44.885Z,0
2019-02-01T00:31:25.433Z,0
2019-02-01T00:32:05.979Z,0
2019-02-01T00:32:46.565Z,0
2019-02-01T00:33:27.634Z,0
2019-02-01T00:34:07.694Z,0
2019-02-01T00:34:48.277Z,0
2019-02-01T00:35:28.849Z,0
2019-02-01T00:36:09.389Z,0
2019-02-01T00:36:49.974Z,0
2019-02-01T00:37:30.538Z,0
2019-02-01T00:38:11.099Z,0
2019-02-01T00:38:51.667Z,0
2019-02-01T00:39:32.210Z,0
2019-02-01T00:40:12.764Z,0
2019-02-01T00:40:53.312Z,0
2019-02-01T00:41:33.887Z,0
2019-02-01T00:42:14.473Z,0
2019-02-01T00:42:55.032Z,0
2019-02-01T00:43:37.854Z,0
2019-02-01T00:44:16.183Z,0
2019-02-01T00:44:56.734Z,0
2019-02-01T00:45:37.293Z,0
2019-02-01T00:46:17.842Z,0
2019-02-01T00:46:58.407Z,0
2019-02-01T00:47:38.987Z,0
2019-02-01T00:48:19.544Z,0
2019-02-01T00:49:00.105Z,0
2019-02-01T00:49:40.669Z,0
2019-02-01T00:50:21.227Z,0
2019-02-01T00:51:01.808Z,0
2019-02-01T00:51:42.362Z,0
2019-02-01T00:52:22.912Z,0
2019-02-01T00:53:03.469Z,0
2019-02-01T00:53:44.016Z,0
2019-02-01T00:54:24.576Z,0
2019-02-01T00:55:05.146Z,0
2019-02-01T00:55:45.730Z,0
2019-02-01T00:56:26.283Z,0
2019-02-01T00:57:06.831Z,0
2019-02-01T00:57:47.391Z,0
2019-02-01T00:58:27.945Z,0
2019-02-01T00:59:08.507Z,0
2019-02-01T00:59:49.154Z,0
2019-02-01T01:00:29.710Z,0
2019-02-01T01:01:10.264Z,0
2019-02-01T01:01:50.817Z,0
2019-02-01T01:02:31.372Z,0
2019-02-01T01:03:11.919Z,0
2019-02-01T01:03:52.469Z,0
2019-02-01T01:04:33.034Z,0
2019-02-01T01:05:13.602Z,0
2019-02-01T01:05:54.172Z,0
2019-02-01T01:06:34.740Z,0
2019-02-01T01:07:15.320Z,0
2019-02-01T01:07:55.915Z,0
2019-02-01T01:08:36.483Z,0
2019-02-01T01:09:17.039Z,0
2019-02-01T01:09:57.603Z,0
2019-02-01T01:10:38.155Z,0
2019-02-01T01:11:18.709Z,0
2019-02-01T01:11:59.265Z,0
2019-02-01T01:12:39.858Z,0
2019-02-01T01:13:20.424Z,0
2019-02-01T01:14:00.989Z,0
2019-02-01T01:14:41.548Z,0
2019-02-01T01:15:22.101Z,0
2019-02-01T01:16:02.649Z,0
2019-02-01T01:16:43.216Z,0
2019-02-01T01:17:23.775Z,0
2019-02-01T01:18:04.337Z,0
2019-02-01T01:18:44.898Z,0
2019-02-01T01:19:25.442Z,0
2019-02-01T01:20:05.993Z,0
2019-02-01T01:20:46.538Z,0
2019-02-01T01:21:27.098Z,0
2019-02-01T01:22:07.647Z,0
2019-02-01T01:22:48.208Z,0
2019-02-01T01:23:28.773Z,0
2019-02-01T01:24:09.335Z,0
2019-02-01T01:24:49.901Z,0
2019-02-01T01:25:30.473Z,0
2019-02-01T01:26:11.028Z,0
2019-02-01T01:26:51.583Z,0
2019-02-01T01:27:32.149Z,0
2019-02-01T01:28:12.722Z,0
2019-02-01T01:28:53.276Z,0
2019-02-01T01:29:33.832Z,0
2019-02-01T01:30:14.386Z,0
2019-02-01T01:30:54.953Z,0
2019-02-01T01:31:35.508Z,0
2019-02-01T01:32:16.064Z,0
2019-02-01T01:32:56.619Z,0
2019-02-01T01:33:37.182Z,0
2019-02-01T01:34:17.738Z,0
2019-02-01T01:34:58.300Z,0
2019-02-01T01:35:38.865Z,0
2019-02-01T01:36:19.416Z,0
2019-02-01T01:36:59.963Z,0
2019-02-01T01:37:40.540Z,0
2019-02-01T01:38:21.088Z,0
2019-02-01T01:39:01.649Z,0
2019-02-01T01:39:42.199Z,0
2019-02-01T01:40:22.750Z,0
2019-02-01T01:41:03.311Z,0
2019-02-01T01:41:43.867Z,0
2019-02-01T01:42:24.422Z,0
2019-02-01T01:43:04.987Z,0
2019-02-01T01:43:45.544Z,0
2019-02-01T01:44:26.108Z,0
2019-02-01T01:45:06.671Z,0
2019-02-01T01:45:47.223Z,0
2019-02-01T01:46:27.778Z,0
2019-02-01T01:47:08.341Z,0
2019-02-01T01:47:48.910Z,0
2019-02-01T01:48:35.029Z,0
2019-02-01T01:49:10.023Z,0
2019-02-01T01:49:50.602Z,0
2019-02-01T01:50:31.488Z,0
2019-02-01T01:51:12.039Z,0
2019-02-01T01:51:52.601Z,0
2019-02-01T01:52:33.169Z,0
2019-02-01T01:53:13.720Z,0
2019-02-01T01:53:54.271Z,0
2019-02-01T01:54:34.827Z,0
2019-02-01T01:55:15.381Z,0
2019-02-01T01:55:55.949Z,0
2019-02-01T01:56:36.510Z,0
2019-02-01T01:57:17.100Z,0
2019-02-01T01:57:57.653Z,0
2019-02-01T01:58:38.217Z,0
2019-02-01T01:59:18.781Z,0
2019-02-01T01:59:59.344Z,0
2019-02-01T02:00:39.944Z,0
2019-02-01T02:01:20.499Z,0
2019-02-01T02:02:01.091Z,0
2019-02-01T02:02:41.633Z,0
2019-02-01T02:03:22.188Z,0
2019-02-01T02:04:02.740Z,0
2019-02-01T02:04:43.297Z,0
2019-02-01T02:05:23.914Z,0
2019-02-01T02:06:04.499Z,0
2019-02-01T02:06:45.096Z,0
2019-02-01T02:07:25.652Z,0
2019-02-01T02:08:06.215Z,0
2019-02-01T02:08:46.769Z,0
2019-02-01T02:09:27.329Z,0
2019-02-01T02:10:07.908Z,0
2019-02-01T02:10:48.488Z,0
2019-02-01T02:11:29.039Z,0
2019-02-01T02:12:09.600Z,0
2019-02-01T02:12:50.159Z,0
2019-02-01T02:13:30.722Z,0
2019-02-01T02:14:11.277Z,0
2019-02-01T02:14:51.840Z,0
2019-02-01T02:15:32.467Z,0
2019-02-01T02:16:13.016Z,0
2019-02-01T02:16:53.574Z,0
2019-02-01T02:17:34.130Z,0
2019-02-01T02:18:14.700Z,0
2019-02-01T02:18:55.284Z,0
2019-02-01T02:19:35.851Z,0
2019-02-01T02:20:16.415Z,0
2019-02-01T02:20:56.968Z,0
2019-02-01T02:21:37.542Z,0
2019-02-01T02:22:18.103Z,0
2019-02-01T02:22:58.652Z,0
2019-02-01T02:23:39.210Z,0
2019-02-01T02:24:19.760Z,0
2019-02-01T02:25:00.329Z,0
2019-02-01T02:25:40.890Z,0
2019-02-01T02:26:21.453Z,0
2019-02-01T02:27:02.015Z,0
2019-02-01T02:27:42.575Z,0
2019-02-01T02:28:23.142Z,0
2019-02-01T02:29:03.697Z,0
2019-02-01T02:29:44.264Z,0
2019-02-01T02:30:24.848Z,0
2019-02-01T02:31:05.395Z,0
2019-02-01T02:31:45.972Z,0
2019-02-01T02:32:26.526Z,0
2019-02-01T02:33:07.082Z,0
2019-02-01T02:33:47.648Z,0
2019-02-01T02:34:28.205Z,0
2019-02-01T02:35:08.758Z,0
2019-02-01T02:35:49.333Z,0
2019-02-01T02:36:29.897Z,0
2019-02-01T02:37:10.456Z,0
2019-02-01T02:37:51.004Z,0
2019-02-01T02:38:31.556Z,0
2019-02-01T02:39:12.127Z,0
2019-02-01T02:39:52.739Z,0
2019-02-01T02:40:33.255Z,0
2019-02-01T02:41:13.813Z,0
2019-02-01T02:41:54.373Z,0
2019-02-01T02:42:34.928Z,0
2019-02-01T02:43:15.476Z,0
2019-02-01T02:43:56.032Z,0
2019-02-01T02:44:36.721Z,0
2019-02-01T02:45:17.167Z,0
2019-02-01T02:45:57.726Z,0
2019-02-01T02:46:38.285Z,0
2019-02-01T02:47:18.869Z,0
2019-02-01T02:47:59.429Z,0
2019-02-01T02:48:39.996Z,0
2019-02-01T02:49:20.552Z,0
2019-02-01T02:50:01.434Z,0
2019-02-01T02:50:41.985Z,0
2019-02-01T02:51:22.565Z,0
2019-02-01T02:52:03.121Z,0
2019-02-01T02:52:43.699Z,0
2019-02-01T02:53:24.259Z,0
2019-02-01T02:54:04.812Z,0
2019-02-01T02:54:45.405Z,0
2019-02-01T02:55:25.952Z,0
2019-02-01T02:56:06.500Z,0
2019-02-01T02:56:47.062Z,0
2019-02-01T02:57:27.676Z,0
2019-02-01T02:58:08.241Z,0
2019-02-01T02:58:48.817Z,0
2019-02-01T02:59:29.407Z,0
2019-02-01T03:00:09.970Z,0
2019-02-01T03:00:50.547Z,0
2019-02-01T03:01:31.099Z,0
2019-02-01T03:02:11.655Z,0
2019-02-01T03:02:52.198Z,0
2019-02-01T03:03:32.812Z,0
2019-02-01T03:04:13.326Z,0
2019-02-01T03:04:54.031Z,0
2019-02-01T03:05:34.436Z,0
2019-02-01T03:06:14.992Z,0
2019-02-01T03:06:55.541Z,0
2019-02-01T03:07:36.096Z,0
2019-02-01T03:08:16.645Z,0
2019-02-01T03:08:57.213Z,0
2019-02-01T03:09:37.766Z,0
2019-02-01T03:10:18.477Z,0
2019-02-01T03:10:58.913Z,0
2019-02-01T03:11:39.507Z,0
2019-02-01T03:12:20.022Z,0
2019-02-01T03:13:00.578Z,0
2019-02-01T03:13:41.149Z,0
2019-02-01T03:14:21.712Z,0
2019-02-01T03:15:02.281Z,0
2019-02-01T03:15:42.833Z,0
2019-02-01T03:16:23.396Z,0
2019-02-01T03:17:03.951Z,0
2019-02-01T03:17:44.531Z,0
2019-02-01T03:18:25.083Z,0
2019-02-01T03:19:12.510Z,0
2019-02-01T03:19:46.210Z,0
2019-02-01T03:20:26.769Z,0
2019-02-01T03:21:07.337Z,0
2019-02-01T03:21:47.904Z,0
2019-02-01T03:22:28.499Z,0
2019-02-01T03:23:09.049Z,0
2019-02-01T03:23:49.605Z,0
2019-02-01T03:24:30.177Z,0
2019-02-01T03:25:10.727Z,0
2019-02-01T03:25:51.276Z,0
2019-02-01T03:26:31.836Z,0
2019-02-01T03:27:12.389Z,0
2019-02-01T03:27:52.953Z,0
2019-02-01T03:28:33.508Z,0
2019-02-01T03:29:14.059Z,0
2019-02-01T03:29:54.641Z,0
2019-02-01T03:30:35.195Z,0
2019-02-01T03:31:15.746Z,0
2019-02-01T03:31:56.307Z,0
2019-02-01T03:32:36.860Z,0
2019-02-01T03:33:17.401Z,0
2019-02-01T03:33:57.955Z,0
2019-02-01T03:34:38.514Z,0
2019-02-01T03:35:19.106Z,0
2019-02-01T03:35:59.651Z,0
2019-02-01T03:36:40.223Z,0
2019-02-01T03:37:20.784Z,0
2019-02-01T03:38:01.346Z,0
2019-02-01T03:38:41.903Z,0
2019-02-01T03:39:22.456Z,0
2019-02-01T03:40:03.018Z,0
2019-02-01T03:40:43.563Z,0
2019-02-01T03:41:24.117Z,0
2019-02-01T03:42:04.669Z,0
2019-02-01T03:42:45.233Z,0
2019-02-01T03:43:25.803Z,0
2019-02-01T03:44:06.327Z,0
2019-02-01T03:44:46.886Z,0
2019-02-01T03:45:28.470Z,0
2019-02-01T03:46:08.225Z,0
2019-02-01T03:46:48.777Z,0
2019-02-01T03:47:29.319Z,0
2019-02-01T03:48:09.882Z,0
2019-02-01T03:48:50.447Z,0
2019-02-01T03:49:31.003Z,0
2019-02-01T03:50:11.564Z,0
2019-02-01T03:50:52.137Z,0
2019-02-01T03:51:32.707Z,0
2019-02-01T03:52:13.265Z,0
2019-02-01T03:52:53.834Z,0
2019-02-01T03:53:34.402Z,0
2019-02-01T03:54:14.967Z,0
2019-02-01T03:54:55.522Z,0
2019-02-01T03:55:36.082Z,0
2019-02-01T03:56:16.642Z,0
2019-02-01T03:56:57.191Z,0
2019-02-01T03:57:37.789Z,0
2019-02-01T03:58:18.380Z,0
2019-02-01T03:58:58.948Z,0
2019-02-01T03:59:39.501Z,0
2019-02-01T04:00:20.065Z,0
2019-02-01T04:01:00.626Z,0
2019-02-01T04:01:41.174Z,0
2019-02-01T04:02:21.716Z,0
2019-02-01T04:03:02.276Z,0
2019-02-01T04:03:42.825Z,0
2019-02-01T04:04:23.385Z,0
2019-02-01T04:05:03.932Z,0
2019-02-01T04:05:44.492Z,0
2019-02-01T04:06:25.057Z,0
2019-02-01T04:07:05.622Z,0
2019-02-01T04:07:46.171Z,0
2019-02-01T04:08:26.731Z,0
2019-02-01T04:09:07.396Z,0
2019-02-01T04:09:47.839Z,0
2019-02-01T04:10:28.407Z,0
2019-02-01T04:11:08.961Z,0
2019-02-01T04:11:49.527Z,0
2019-02-01T04:12:30.079Z,0
2019-02-01T04:13:10.652Z,0
2019-02-01T04:13:51.228Z,0
2019-02-01T04:14:31.813Z,0
2019-02-01T04:15:12.353Z,0
2019-02-01T04:15:52.906Z,0
2019-02-01T04:16:33.473Z,0
2019-02-01T04:17:14.020Z,0
2019-02-01T04:17:54.568Z,0
2019-02-01T04:18:35.160Z,0
2019-02-01T04:19:15.730Z,0
2019-02-01T04:19:56.289Z,0
2019-02-01T04:20:36.852Z,0
2019-02-01T04:21:17.409Z,0
2019-02-01T04:21:57.976Z,0
2019-02-01T04:22:38.539Z,0
2019-02-01T04:23:19.093Z,0
2019-02-01T04:23:59.654Z,0
2019-02-01T04:24:40.210Z,0
2019-02-01T04:25:20.755Z,0
2019-02-01T04:26:01.311Z,0
2019-02-01T04:26:41.861Z,0
2019-02-01T04:27:22.406Z,0
2019-02-01T04:28:02.983Z,0
2019-02-01T04:28:43.547Z,0
2019-02-01T04:29:24.124Z,0
2019-02-01T04:30:04.689Z,0
2019-02-01T04:30:45.244Z,0
2019-02-01T04:31:25.819Z,0
2019-02-01T04:32:06.397Z,0
2019-02-01T04:32:46.969Z,0
2019-02-01T04:33:27.656Z,0
2019-02-01T04:34:08.091Z,0
2019-02-01T04:34:48.647Z,0
2019-02-01T04:35:29.274Z,0
2019-02-01T04:36:09.751Z,0
2019-02-01T04:36:50.303Z,0
2019-02-01T04:37:30.864Z,0
2019-02-01T04:38:11.452Z,0
2019-02-01T04:38:52.021Z,0
2019-02-01T04:39:32.605Z,0
2019-02-01T04:40:13.158Z,0
2019-02-01T04:40:53.717Z,0
2019-02-01T04:41:34.273Z,0
2019-02-01T04:42:14.824Z,0
2019-02-01T04:42:55.381Z,0
2019-02-01T04:43:35.936Z,0
2019-02-01T04:44:16.486Z,0
2019-02-01T04:44:57.044Z,0
2019-02-01T04:45:37.602Z,0
2019-02-01T04:46:18.165Z,0
2019-02-01T04:46:58.738Z,0
2019-02-01T04:47:39.295Z,0
2019-02-01T04:48:19.856Z,0
2019-02-01T04:49:00.524Z,0
2019-02-01T04:49:41.075Z,0
2019-02-01T04:50:21.958Z,0
2019-02-01T04:51:02.530Z,0
2019-02-01T04:51:43.099Z,0
2019-02-01T04:52:23.657Z,0
2019-02-01T04:53:04.206Z,0
2019-02-01T04:53:44.762Z,0
2019-02-01T04:54:25.322Z,0
2019-02-01T04:55:05.887Z,0
2019-02-01T04:55:46.439Z,0
2019-02-01T04:56:26.994Z,0
2019-02-01T04:57:07.555Z,0
2019-02-01T04:57:48.119Z,0
2019-02-01T04:58:28.685Z,0
2019-02-01T04:59:09.250Z,0
2019-02-01T04:59:49.811Z,0
2019-02-01T05:00:30.373Z,0
2019-02-01T05:01:10.926Z,0
2019-02-01T05:01:51.495Z,0
2019-02-01T05:02:32.043Z,0
2019-02-01T05:03:12.605Z,0
2019-02-01T05:03:53.235Z,0
2019-02-01T05:04:33.796Z,0
2019-02-01T05:05:14.366Z,0
2019-02-01T05:05:54.954Z,0
2019-02-01T05:06:35.517Z,0
2019-02-01T05:07:16.076Z,0
2019-02-01T05:07:56.663Z,0
2019-02-01T05:08:37.195Z,0
2019-02-01T05:09:17.769Z,0
2019-02-01T05:09:58.320Z,0
2019-02-01T05:10:38.911Z,0
2019-02-01T05:11:19.478Z,0
2019-02-01T05:12:00.073Z,0
2019-02-01T05:12:40.624Z,0
2019-02-01T05:13:21.212Z,0
2019-02-01T05:14:01.776Z,0
2019-02-01T05:14:42.355Z,0
2019-02-01T05:15:22.913Z,0
2019-02-01T05:16:03.477Z,0
2019-02-01T05:16:44.063Z,0
2019-02-01T05:17:24.619Z,0
2019-02-01T05:18:05.187Z,0
2019-02-01T05:18:45.738Z,0
2019-02-01T05:19:26.305Z,0
2019-02-01T05:20:16.123Z,0
2019-02-01T05:20:47.420Z,0
2019-02-01T05:21:27.966Z,0
2019-02-01T05:22:08.530Z,0
2019-02-01T05:22:49.086Z,0
2019-02-01T05:23:29.639Z,0
2019-02-01T05:24:10.191Z,0
2019-02-01T05:24:50.746Z,0
2019-02-01T05:25:31.306Z,0
2019-02-01T05:26:11.858Z,0
2019-02-01T05:26:52.409Z,0
2019-02-01T05:27:32.969Z,0
2019-02-01T05:28:13.504Z,0
2019-02-01T05:28:54.059Z,0
2019-02-01T05:29:34.610Z,0
2019-02-01T05:30:15.173Z,0
2019-02-01T05:30:55.740Z,0
2019-02-01T05:31:36.313Z,0
2019-02-01T05:32:16.878Z,0
2019-02-01T05:32:57.430Z,0
2019-02-01T05:33:38.006Z,0
2019-02-01T05:34:18.654Z,0
2019-02-01T05:34:59.123Z,0
2019-02-01T05:35:39.697Z,0
2019-02-01T05:36:20.268Z,0
2019-02-01T05:37:00.815Z,0
2019-02-01T05:37:41.369Z,0
2019-02-01T05:38:21.926Z,0
2019-02-01T05:39:02.479Z,0
2019-02-01T05:39:43.058Z,0
2019-02-01T05:40:23.618Z,0
2019-02-01T05:41:04.173Z,0
2019-02-01T05:41:44.744Z,0
2019-02-01T05:42:25.304Z,0
2019-02-01T05:43:05.877Z,0
2019-02-01T05:43:46.468Z,0
2019-02-01T05:44:27.035Z,0
2019-02-01T05:45:07.624Z,0
2019-02-01T05:45:48.179Z,0
2019-02-01T05:46:28.746Z,0
2019-02-01T05:47:09.298Z,0
2019-02-01T05:47:49.864Z,0
2019-02-01T05:48:30.422Z,0
2019-02-01T05:49:10.968Z,0
2019-02-01T05:49:51.523Z,0
2019-02-01T05:50:32.089Z,0
2019-02-01T05:51:12.648Z,0
2019-02-01T05:51:53.430Z,0
2019-02-01T05:52:34.076Z,0
2019-02-01T05:53:14.625Z,0
2019-02-01T05:53:55.178Z,0
2019-02-01T05:54:35.831Z,0
2019-02-01T05:55:16.407Z,0
2019-02-01T05:55:56.963Z,0
2019-02-01T05:56:37.516Z,0
2019-02-01T05:57:18.061Z,0
2019-02-01T05:57:58.627Z,0
2019-02-01T05:58:39.192Z,0
2019-02-01T05:59:19.765Z,0
2019-02-01T06:00:00.439Z,0
2019-02-01T06:00:40.894Z,0
2019-02-01T06:01:21.440Z,0
2019-02-01T06:02:02.036Z,0
2019-02-01T06:02:42.718Z,0
2019-02-01T06:03:23.173Z,0
2019-02-01T06:04:03.741Z,0
2019-02-01T06:04:44.286Z,0
2019-02-01T06:05:24.874Z,0
2019-02-01T06:06:05.433Z,0
2019-02-01T06:06:45.995Z,0
2019-02-01T06:07:26.561Z,0
2019-02-01T06:08:07.182Z,0
2019-02-01T06:08:47.668Z,0
2019-02-01T06:09:28.222Z,0
2019-02-01T06:10:08.778Z,0
2019-02-01T06:10:49.372Z,0
2019-02-01T06:11:29.959Z,0
2019-02-01T06:12:10.515Z,0
2019-02-01T06:12:51.100Z,0
2019-02-01T06:13:31.663Z,0
2019-02-01T06:14:12.210Z,0
2019-02-01T06:14:52.768Z,0
2019-02-01T06:15:33.321Z,0
2019-02-01T06:16:13.886Z,0
2019-02-01T06:16:54.449Z,4
2019-02-01T06:17:34.987Z,4
2019-02-01T06:18:15.594Z,0
2019-02-01T06:18:56.219Z,0
2019-02-01T06:19:36.756Z,4
2019-02-01T06:20:17.307Z,4
2019-02-01T06:20:57.866Z,4
2019-02-01T06:21:38.423Z,0
2019-02-01T06:22:18.992Z,4
2019-02-01T06:22:59.549Z,4
2019-02-01T06:23:40.234Z,0
2019-02-01T06:24:20.784Z,4
2019-02-01T06:25:01.352Z,4
2019-02-01T06:25:41.896Z,4
2019-02-01T06:26:22.440Z,4
2019-02-01T06:27:02.992Z,4
2019-02-01T06:27:43.562Z,8
2019-02-01T06:28:24.126Z,4
2019-02-01T06:29:04.669Z,8
2019-02-01T06:29:45.220Z,8
2019-02-01T06:30:25.771Z,12
2019-02-01T06:31:06.414Z,8
2019-02-01T06:31:47.006Z,8
2019-02-01T06:32:27.572Z,12
2019-02-01T06:33:08.121Z,12
2019-02-01T06:33:48.678Z,12
2019-02-01T06:34:29.237Z,12
2019-02-01T06:35:09.802Z,12
2019-02-01T06:35:50.363Z,16
2019-02-01T06:36:30.925Z,16
2019-02-01T06:37:11.487Z,20
2019-02-01T06:37:52.058Z,20
2019-02-01T06:38:32.685Z,24
2019-02-01T06:39:13.266Z,28
2019-02-01T06:39:53.816Z,28
2019-02-01T06:40:34.377Z,32
2019-02-01T06:41:14.975Z,36
2019-02-01T06:41:55.529Z,40
2019-02-01T06:42:36.090Z,40
2019-02-01T06:43:16.651Z,48
2019-02-01T06:43:57.207Z,52
2019-02-01T06:44:37.766Z,52
2019-02-01T06:45:18.331Z,52
2019-02-01T06:45:59.165Z,56
2019-02-01T06:46:40.053Z,56
2019-02-01T06:47:21.046Z,60
2019-02-01T06:48:01.986Z,68
2019-02-01T06:48:42.834Z,72
2019-02-01T06:49:23.764Z,80
2019-02-01T06:50:04.641Z,88
2019-02-01T06:50:52.117Z,96
2019-02-01T06:51:26.734Z,108
2019-02-01T06:52:06.922Z,116
2019-02-01T06:52:47.687Z,128
2019-02-01T06:53:28.449Z,140
2019-02-01T06:54:09.259Z,152
2019-02-01T06:54:49.932Z,164
2019-02-01T06:55:30.871Z,168
2019-02-01T06:56:11.584Z,176
2019-02-01T06:56:52.270Z,184
2019-02-01T06:57:33.425Z,196
2019-02-01T06:58:14.179Z,204
2019-02-01T07:01:48.514Z,248
2019-02-01T07:02:29.367Z,256
2019-02-01T07:03:10.046Z,260
2019-02-01T07:03:50.803Z,260
2019-02-01T07:04:31.497Z,260
2019-02-01T07:05:12.193Z,256
2019-02-01T07:05:52.910Z,260
2019-02-01T07:06:33.633Z,268
2019-02-01T07:07:14.283Z,280
2019-02-01T07:07:55.105Z,296
2019-02-01T07:08:36.075Z,316
2019-02-01T07:09:17.150Z,352
2019-02-01T07:09:58.171Z,376
2019-02-01T07:10:38.735Z,380
2019-02-01T07:11:19.281Z,380
2019-02-01T07:11:59.855Z,380
2019-02-01T07:12:40.472Z,384
2019-02-01T07:13:21.030Z,388
2019-02-01T07:14:01.698Z,380
2019-02-01T07:14:42.306Z,368
2019-02-01T07:15:22.898Z,356
2019-02-01T07:16:03.476Z,352
2019-02-01T07:16:44.070Z,356
2019-02-01T07:17:24.645Z,372
2019-02-01T07:18:05.222Z,404
2019-02-01T07:18:45.824Z,440
2019-02-01T07:19:26.398Z,480
2019-02-01T07:20:06.948Z,504
2019-02-01T07:20:47.499Z,528
2019-02-01T07:21:28.069Z,536
2019-02-01T07:22:08.632Z,544
2019-02-01T07:22:49.210Z,552
2019-02-01T07:23:29.772Z,560
2019-02-01T07:24:10.411Z,580
2019-02-01T07:24:51.750Z,588
2019-02-01T07:25:32.300Z,584
2019-02-01T07:26:13.033Z,588
2019-02-01T07:26:53.965Z,588
2019-02-01T07:27:34.512Z,580
2019-02-01T07:28:15.063Z,584
2019-02-01T07:28:55.667Z,592
2019-02-01T07:29:36.224Z,588
2019-02-01T07:30:16.814Z,564
2019-02-01T07:30:58.331Z,544
2019-02-01T07:31:38.988Z,524
2019-02-01T07:32:19.689Z,508
2019-02-01T07:33:00.305Z,488
2019-02-01T07:33:41.729Z,472
2019-02-01T07:34:22.375Z,460
2019-02-01T07:35:02.940Z,448
2019-02-01T07:35:43.535Z,440
2019-02-01T07:36:24.151Z,440
2019-02-01T07:37:04.711Z,444
2019-02-01T07:37:45.273Z,448
2019-02-01T07:38:25.904Z,456
2019-02-01T07:39:06.477Z,464
2019-02-01T07:39:47.112Z,472
2019-02-01T07:40:27.966Z,480
2019-02-01T07:41:08.511Z,480
2019-02-01T07:41:49.435Z,480
2019-02-01T07:42:30.267Z,476
2019-02-01T07:43:10.826Z,484
2019-02-01T07:43:51.388Z,480
2019-02-01T07:44:31.968Z,484
2019-02-01T07:45:13.201Z,496
2019-02-01T07:45:53.770Z,512
2019-02-01T07:46:34.322Z,532
2019-02-01T07:47:14.888Z,556
2019-02-01T07:47:55.492Z,592
2019-02-01T07:48:36.144Z,640
2019-02-01T07:49:17.361Z,688
2019-02-01T07:49:58.000Z,740
2019-02-01T07:50:38.606Z,796
2019-02-01T07:51:19.317Z,864
2019-02-01T07:52:00.015Z,932
2019-02-01T07:52:40.810Z,1008
2019-02-01T07:53:21.396Z,1084
2019-02-01T07:54:01.957Z,1176
2019-02-01T07:54:42.509Z,1276
2019-02-01T07:55:23.089Z,1384
2019-02-01T07:56:03.720Z,1508
2019-02-01T07:56:44.286Z,1608
2019-02-01T07:57:24.859Z,1660
2019-02-01T07:58:05.485Z,1712
2019-02-01T07:58:46.033Z,1728
2019-02-01T07:59:26.677Z,1744
2019-02-01T08:00:07.240Z,1748
2019-02-01T08:00:47.813Z,1756
2019-02-01T08:01:28.371Z,1756
2019-02-01T08:02:09.006Z,1732
2019-02-01T08:02:49.543Z,1708
2019-02-01T08:03:30.093Z,1696
2019-02-01T08:04:12.268Z,1692
2019-02-01T08:04:52.794Z,1692
2019-02-01T08:05:33.371Z,1680
2019-02-01T08:06:13.940Z,1676
2019-02-01T08:06:54.543Z,1664
2019-02-01T08:07:35.102Z,1640
2019-02-01T08:08:15.665Z,1628
2019-02-01T08:08:56.241Z,1616
2019-02-01T08:09:36.806Z,1628
2019-02-01T08:10:17.480Z,1648
2019-02-01T08:10:58.031Z,1672
2019-02-01T08:11:38.733Z,1700
2019-02-01T08:12:19.336Z,1744
2019-02-01T08:12:59.947Z,1784
2019-02-01T08:13:40.646Z,1844
2019-02-01T08:14:21.223Z,1908
2019-02-01T08:15:01.935Z,1964
2019-02-01T08:15:42.559Z,1996
2019-02-01T08:16:23.114Z,2012
2019-02-01T08:17:03.695Z,1992
2019-02-01T08:17:44.285Z,1964
2019-02-01T08:18:24.844Z,1920
2019-02-01T08:19:05.422Z,1868
2019-02-01T08:19:45.968Z,1816
2019-02-01T08:20:26.548Z,1768
2019-02-01T08:21:07.093Z,1716
2019-02-01T08:21:47.664Z,1680
2019-02-01T08:22:28.235Z,1652
2019-02-01T08:23:08.786Z,1620
2019-02-01T08:23:49.335Z,1604
2019-02-01T08:24:29.889Z,1588
2019-02-01T08:25:10.449Z,1560
2019-02-01T08:25:51.003Z,1528
2019-02-01T08:26:31.622Z,1508
2019-02-01T08:27:12.162Z,1504
2019-02-01T08:27:52.735Z,1516
2019-02-01T08:28:33.302Z,1544
2019-02-01T08:29:13.854Z,1580
2019-02-01T08:29:54.433Z,1644
2019-02-01T08:30:35.010Z,1668
2019-02-01T08:31:15.578Z,1668
2019-02-01T08:31:56.136Z,1684
2019-02-01T08:32:36.823Z,1648
2019-02-01T08:33:17.384Z,1588
2019-02-01T08:33:57.940Z,1556
2019-02-01T08:34:38.500Z,1548
2019-02-01T08:35:19.042Z,1560
2019-02-01T08:35:59.583Z,1572
2019-02-01T08:36:40.142Z,1608
2019-02-01T08:37:20.711Z,1684
2019-02-01T08:38:01.261Z,1776
2019-02-01T08:38:41.836Z,1848
2019-02-01T08:39:22.501Z,1900
2019-02-01T08:40:03.190Z,1940
2019-02-01T08:40:43.843Z,1964
2019-02-01T08:41:24.397Z,1920
2019-02-01T08:42:05.171Z,1848
2019-02-01T08:45:03.947Z,1552
2019-02-01T08:45:44.542Z,1476
2019-02-01T08:46:25.108Z,1412
2019-02-01T08:47:06.006Z,1344
2019-02-01T08:47:46.445Z,1308
2019-02-01T08:48:27.007Z,1292
2019-02-01T08:49:07.587Z,1276
2019-02-01T08:49:48.129Z,1236
2019-02-01T08:50:29.463Z,1188
2019-02-01T08:51:10.095Z,1144
2019-02-01T08:51:50.626Z,1096
2019-02-01T08:52:31.175Z,1060
2019-02-01T08:53:11.747Z,1036
2019-02-01T08:53:52.310Z,1024
2019-02-01T08:54:32.864Z,1020
2019-02-01T08:55:13.481Z,1012
2019-02-01T08:55:54.195Z,1000
2019-02-01T08:56:34.753Z,996
2019-02-01T08:57:15.343Z,988
2019-02-01T08:57:56.053Z,988
2019-02-01T08:58:36.623Z,984
2019-02-01T08:59:17.163Z,976
2019-02-01T08:59:57.763Z,964
2019-02-01T09:00:38.365Z,956
2019-02-01T09:01:19.581Z,952
2019-02-01T09:02:00.123Z,944
2019-02-01T09:02:41.014Z,936
2019-02-01T09:03:21.819Z,924
2019-02-01T09:04:03.793Z,912
2019-02-01T09:04:44.401Z,904
2019-02-01T09:05:24.976Z,896
2019-02-01T09:06:05.552Z,900
2019-02-01T09:06:46.102Z,920
2019-02-01T09:07:26.665Z,952
2019-02-01T09:08:07.325Z,984
2019-02-01T09:08:47.930Z,1024
2019-02-01T09:09:28.506Z,1072
2019-02-01T09:10:09.053Z,1120
2019-02-01T09:10:49.605Z,1172
2019-02-01T09:11:30.163Z,1228
2019-02-01T09:12:10.709Z,1280
2019-02-01T09:12:51.283Z,1324
2019-02-01T09:13:31.823Z,1356
2019-02-01T09:14:12.377Z,1392
2019-02-01T09:14:52.937Z,1436
2019-02-01T09:15:33.484Z,1472
2019-02-01T09:16:14.046Z,1508
2019-02-01T09:16:54.612Z,1540
2019-02-01T09:17:35.280Z,1556
2019-02-01T09:18:16.057Z,1572
2019-02-01T09:18:56.617Z,1596
2019-02-01T09:19:37.205Z,1608
2019-02-01T09:20:17.784Z,1608
2019-02-01T09:20:58.385Z,1612
2019-02-01T09:21:49.580Z,1636
2019-02-01T09:22:19.482Z,1664
2019-02-01T09:23:00.058Z,1680
2019-02-01T09:23:40.632Z,1680
2019-02-01T09:24:21.205Z,1672
2019-02-01T09:25:01.757Z,1648
2019-02-01T09:25:42.329Z,1628
2019-02-01T09:26:22.876Z,1620
2019-02-01T09:27:03.470Z,1628
2019-02-01T09:27:44.020Z,1636
2019-02-01T09:28:24.665Z,1632
2019-02-01T09:29:05.217Z,1616
2019-02-01T09:29:45.838Z,1600
2019-02-01T09:30:26.389Z,1580
2019-02-01T09:31:06.950Z,1560
2019-02-01T09:31:47.506Z,1540
2019-02-01T09:32:28.057Z,1532
2019-02-01T09:33:08.753Z,1532
2019-02-01T09:33:49.326Z,1528
2019-02-01T09:34:29.897Z,1516
2019-02-01T09:35:10.447Z,1504
2019-02-01T09:35:51.040Z,1492
2019-02-01T09:36:31.606Z,1492
2019-02-01T09:37:12.168Z,1492
2019-02-01T09:37:52.758Z,1496
2019-02-01T09:38:33.357Z,1504
2019-02-01T09:39:13.926Z,1508
2019-02-01T09:39:54.476Z,1512
2019-02-01T09:40:35.042Z,1528
2019-02-01T09:41:15.578Z,1564
2019-02-01T09:41:56.143Z,1596
2019-02-01T09:42:36.695Z,1616
2019-02-01T09:43:17.231Z,1616
2019-02-01T09:43:57.808Z,1608
2019-02-01T09:44:38.435Z,1588
2019-02-01T09:45:19.039Z,1560
2019-02-01T09:45:59.723Z,1532
2019-02-01T09:46:40.316Z,1488
2019-02-01T09:47:20.863Z,1448
2019-02-01T09:48:01.428Z,1408